Terminal Aerodrome Forecast
Issued by NWS

Home | Current Version | Previous Version | Text Only | Print | Product List | Glossary On
Versions: 1 2 3 4 5 6 7 8 9 10 11 12 13 14 15 16 17 18 19 20
000
FTUS44 KLIX 221735
TAFMCB
TAF
KMCB 221735Z 2218/2318 VRB05KT P6SM VCTS FEW025CB
      TEMPO 2220/2224 VRB15G30KT 3SM TSRA OVC025CB
     FM230100 VRB03KT P6SM FEW050
     FM230800 VRB03KT 3SM BR SCT200
     FM231100 26004KT P6SM SCT025=

USA.gov is the U.S. government's official web portal to all federal, state and local government web resources and services.